createdAt,value
2023-05-21T00:00:49.776Z,46.03
2023-05-21T00:01:49.933Z,46.03
2023-05-21T00:02:49.963Z,46.02
2023-05-21T00:03:50.107Z,46.02
2023-05-21T00:04:49.976Z,46.01
2023-05-21T00:05:50.228Z,46.02
2023-05-21T00:06:50.045Z,46.02
2023-05-21T00:07:50.073Z,46.02
2023-05-21T00:08:50.205Z,46.02
2023-05-21T00:09:50.138Z,46.02
2023-05-21T00:10:50.267Z,46.00
2023-05-21T00:11:50.238Z,46.01
2023-05-21T00:12:50.269Z,46.01
2023-05-21T00:13:50.371Z,46.03
2023-05-21T00:14:50.358Z,46.01
2023-05-21T00:15:50.397Z,46.00
2023-05-21T00:16:50.507Z,46.03
2023-05-21T00:17:50.489Z,46.03
2023-05-21T00:18:50.594Z,46.03
2023-05-21T00:19:50.563Z,46.04
2023-05-21T00:20:50.643Z,46.00
2023-05-21T00:21:50.640Z,46.01
2023-05-21T00:22:50.691Z,46.02
2023-05-21T00:23:50.754Z,46.01
2023-05-21T00:24:51.621Z,46.01
2023-05-21T00:25:50.874Z,46.03
2023-05-21T00:26:50.883Z,46.02
2023-05-21T00:27:52.101Z,46.02
2023-05-21T00:28:51.612Z,46.01
2023-05-21T00:29:50.997Z,46.02
2023-05-21T00:30:51.118Z,46.01
2023-05-21T00:31:51.164Z,46.02
2023-05-21T00:32:51.150Z,46.05
2023-05-21T00:33:51.159Z,46.04
2023-05-21T00:34:51.211Z,46.03
2023-05-21T00:35:51.293Z,46.05
2023-05-21T00:36:51.341Z,46.05
2023-05-21T00:37:52.137Z,46.04
2023-05-21T00:38:51.421Z,46.06
2023-05-21T00:39:51.464Z,46.06
2023-05-21T00:40:51.639Z,46.05
2023-05-21T00:41:51.528Z,46.05
2023-05-21T00:42:51.568Z,46.06
2023-05-21T00:43:51.632Z,46.10
2023-05-21T00:44:51.624Z,46.08
2023-05-21T00:45:52.162Z,46.06
2023-05-21T00:46:51.737Z,46.06
2023-05-21T00:47:51.807Z,46.08
2023-05-21T00:48:51.846Z,46.07
2023-05-21T00:49:51.835Z,46.09
2023-05-21T00:50:51.897Z,46.10
2023-05-21T00:51:51.970Z,46.09
2023-05-21T00:52:52.052Z,46.11
2023-05-21T00:53:52.050Z,46.10
2023-05-21T00:54:52.100Z,46.10
2023-05-21T00:55:52.157Z,46.08
2023-05-21T00:56:53.126Z,46.10
2023-05-21T00:57:52.255Z,46.11
2023-05-21T00:58:52.322Z,46.12
2023-05-21T00:59:52.339Z,46.11
2023-05-21T01:00:52.426Z,46.10
2023-05-21T01:01:52.494Z,46.14
2023-05-21T01:02:52.510Z,46.13
2023-05-21T01:03:52.531Z,46.12
2023-05-21T01:04:52.558Z,46.15
2023-05-21T01:05:52.608Z,46.12
2023-05-21T01:06:52.675Z,46.15
2023-05-21T01:07:53.652Z,46.14
2023-05-21T01:08:52.769Z,46.14
2023-05-21T01:09:52.850Z,46.14
2023-05-21T01:10:52.849Z,46.17
2023-05-21T01:11:52.905Z,46.15
2023-05-21T01:12:52.931Z,46.18
2023-05-21T01:13:53.008Z,46.17
2023-05-21T01:14:53.060Z,46.16
2023-05-21T01:15:53.163Z,46.20
2023-05-21T01:16:53.237Z,46.17
2023-05-21T01:17:53.300Z,46.17
2023-05-21T01:18:53.319Z,46.19
2023-05-21T01:19:53.368Z,46.17
2023-05-21T01:20:53.335Z,46.17
2023-05-21T01:21:53.409Z,46.20
2023-05-21T01:22:53.457Z,46.20
2023-05-21T01:23:53.509Z,46.22
2023-05-21T01:24:53.562Z,46.21
2023-05-21T01:25:54.558Z,46.25
2023-05-21T01:26:53.531Z,46.23
2023-05-21T01:27:53.528Z,46.24
2023-05-21T01:28:53.537Z,46.26
2023-05-21T01:29:53.512Z,46.20
2023-05-21T01:30:53.517Z,46.26
2023-05-21T01:31:53.533Z,46.25
2023-05-21T01:32:53.635Z,46.24
2023-05-21T01:33:53.542Z,46.26
2023-05-21T01:34:53.490Z,46.25
2023-05-21T01:35:53.478Z,46.24
2023-05-21T01:36:53.440Z,46.25
2023-05-21T01:37:53.467Z,46.25
2023-05-21T01:38:53.447Z,46.27
2023-05-21T01:39:53.462Z,46.29
2023-05-21T01:40:53.465Z,46.25
2023-05-21T01:41:53.451Z,46.29
2023-05-21T01:42:53.430Z,46.28
2023-05-21T01:43:53.411Z,46.29
2023-05-21T01:44:53.448Z,46.28
2023-05-21T01:45:53.456Z,46.28
2023-05-21T01:46:53.518Z,46.28
2023-05-21T01:47:53.429Z,46.29
2023-05-21T01:48:53.374Z,46.29
2023-05-21T01:49:53.364Z,46.30
2023-05-21T01:50:53.679Z,46.30
2023-05-21T01:51:53.384Z,46.29
2023-05-21T01:52:53.359Z,46.33
2023-05-21T01:53:53.355Z,46.29
2023-05-21T01:54:53.369Z,46.30
2023-05-21T01:55:53.340Z,46.31
2023-05-21T01:56:53.330Z,46.30
2023-05-21T01:57:53.332Z,46.30
2023-05-21T01:58:53.335Z,46.29
2023-05-21T01:59:53.361Z,46.29
2023-05-21T02:00:53.298Z,46.30
2023-05-21T02:01:53.400Z,46.32
2023-05-21T02:02:53.424Z,46.30
2023-05-21T02:03:53.399Z,46.31
2023-05-21T02:04:53.262Z,46.31
2023-05-21T02:05:53.280Z,46.33
2023-05-21T02:06:53.239Z,46.34
2023-05-21T02:07:55.161Z,46.31
2023-05-21T02:08:53.321Z,46.33
2023-05-21T02:09:53.229Z,46.37
2023-05-21T02:10:53.291Z,46.33
2023-05-21T02:11:53.268Z,46.34
2023-05-21T02:12:53.339Z,46.34
2023-05-21T02:13:53.368Z,46.34
2023-05-21T02:14:53.460Z,46.38
2023-05-21T02:15:54.184Z,46.38
2023-05-21T02:16:54.130Z,46.36
2023-05-21T02:17:53.600Z,46.37
2023-05-21T02:18:53.815Z,46.37
2023-05-21T02:19:53.688Z,46.39
2023-05-21T02:20:53.732Z,46.37
2023-05-21T02:21:53.807Z,46.40
2023-05-21T02:22:53.874Z,46.42
2023-05-21T02:23:53.882Z,46.41
2023-05-21T02:24:53.932Z,46.40
2023-05-21T02:25:53.993Z,46.40
2023-05-21T02:26:54.033Z,46.38
2023-05-21T02:27:54.196Z,46.40
2023-05-21T02:28:54.153Z,46.43
2023-05-21T02:29:54.198Z,46.41
2023-05-21T02:30:54.676Z,46.41
2023-05-21T02:31:54.288Z,46.41
2023-05-21T02:32:54.358Z,46.42
2023-05-21T02:33:54.403Z,46.42
2023-05-21T02:34:54.446Z,46.45
2023-05-21T02:35:54.492Z,46.44
2023-05-21T02:36:54.553Z,46.43
2023-05-21T02:37:54.608Z,46.44
2023-05-21T02:38:54.634Z,46.44
2023-05-21T02:39:54.706Z,46.44
2023-05-21T02:40:54.747Z,46.44
2023-05-21T02:41:54.799Z,46.45
2023-05-21T02:42:54.828Z,46.46
2023-05-21T02:43:54.897Z,46.44
2023-05-21T02:44:54.962Z,46.46
2023-05-21T02:45:55.083Z,46.46
2023-05-21T02:46:55.059Z,46.45
2023-05-21T02:47:55.131Z,46.48
2023-05-21T02:48:55.155Z,46.48
2023-05-21T02:49:55.228Z,46.50
2023-05-21T02:50:55.267Z,46.50
2023-05-21T02:51:55.316Z,46.50
2023-05-21T02:52:55.374Z,46.47
2023-05-21T02:53:55.409Z,46.50
2023-05-21T02:54:55.463Z,46.47
2023-05-21T02:55:55.520Z,46.50
2023-05-21T02:56:55.583Z,46.49
2023-05-21T02:57:55.649Z,46.48
2023-05-21T02:58:55.687Z,46.50
2023-05-21T02:59:55.768Z,46.49
2023-05-21T03:00:55.817Z,46.52
2023-05-21T03:01:55.829Z,46.50
2023-05-21T03:02:56.009Z,46.53
2023-05-21T03:03:55.928Z,46.47
2023-05-21T03:04:55.966Z,46.53
2023-05-21T03:05:56.036Z,46.53
2023-05-21T03:06:56.070Z,46.48
2023-05-21T03:07:56.152Z,46.51
2023-05-21T03:08:56.202Z,46.52
2023-05-21T03:09:56.244Z,46.53
2023-05-21T03:10:56.698Z,46.50
2023-05-21T03:11:56.355Z,46.50
2023-05-21T03:12:56.443Z,46.52
2023-05-21T03:13:56.449Z,46.52
2023-05-21T03:14:56.536Z,46.51
2023-05-21T03:15:56.734Z,46.53
2023-05-21T03:16:56.635Z,46.51
2023-05-21T03:17:56.687Z,46.51
2023-05-21T03:18:56.725Z,46.52
2023-05-21T03:19:56.738Z,46.50
2023-05-21T03:20:57.203Z,46.50
2023-05-21T03:21:56.869Z,46.51
2023-05-21T03:22:56.947Z,46.52
2023-05-21T03:23:57.010Z,46.50
2023-05-21T03:24:57.009Z,46.54
2023-05-21T03:25:57.184Z,46.55
2023-05-21T03:26:57.112Z,46.53
2023-05-21T03:27:57.183Z,46.56
2023-05-21T03:28:57.225Z,46.55
2023-05-21T03:29:57.254Z,46.55
2023-05-21T03:30:57.348Z,46.53
2023-05-21T03:31:57.410Z,46.51
2023-05-21T03:32:57.469Z,46.56
2023-05-21T03:33:57.468Z,46.55
2023-05-21T03:34:57.548Z,46.52
2023-05-21T03:35:57.577Z,46.53
2023-05-21T03:36:57.630Z,46.53
2023-05-21T03:37:57.671Z,46.50
2023-05-21T03:38:57.759Z,46.52
2023-05-21T03:39:57.808Z,46.52
2023-05-21T03:40:58.206Z,46.53
2023-05-21T03:41:57.887Z,46.54
2023-05-21T03:42:57.940Z,46.54
2023-05-21T03:43:57.977Z,46.56
2023-05-21T03:44:58.044Z,46.56
2023-05-21T03:45:58.155Z,46.56
2023-05-21T03:46:58.157Z,46.59
2023-05-21T03:47:58.214Z,46.56
2023-05-21T03:48:58.250Z,46.56
2023-05-21T03:49:58.331Z,46.55
2023-05-21T03:50:58.355Z,46.58
2023-05-21T03:51:58.432Z,46.58
2023-05-21T03:52:58.484Z,46.57
2023-05-21T03:53:58.555Z,46.55
2023-05-21T03:54:58.590Z,46.59
2023-05-21T03:55:58.733Z,46.59
2023-05-21T03:56:59.897Z,46.58
2023-05-21T03:57:58.769Z,46.58
2023-05-21T03:58:58.789Z,46.58
2023-05-21T03:59:58.874Z,46.58
2023-05-21T04:00:58.892Z,46.60
2023-05-21T04:01:58.945Z,46.61
2023-05-21T04:02:59.091Z,46.59
2023-05-21T04:03:59.168Z,46.61
2023-05-21T04:04:59.158Z,46.62
2023-05-21T04:05:59.208Z,46.58
2023-05-21T04:06:59.210Z,46.58
2023-05-21T04:07:59.300Z,46.60
2023-05-21T04:08:59.332Z,46.60
2023-05-21T04:09:59.401Z,46.59
2023-05-21T04:10:59.817Z,46.62
2023-05-21T04:11:59.844Z,46.60
2023-05-21T04:12:59.514Z,46.60
2023-05-21T04:13:59.590Z,46.64
2023-05-21T04:14:59.654Z,46.60
2023-05-21T04:15:59.737Z,46.60
2023-05-21T04:16:59.726Z,46.62
2023-05-21T04:17:59.856Z,46.62
2023-05-21T04:18:59.850Z,46.64
2023-05-21T04:19:59.884Z,46.62
2023-05-21T04:20:59.938Z,46.65
2023-05-21T04:22:00.008Z,46.65
2023-05-21T04:23:00.062Z,46.62
2023-05-21T04:24:00.128Z,46.66
2023-05-21T04:25:00.249Z,46.68
2023-05-21T04:26:00.208Z,46.66
2023-05-21T04:27:00.268Z,46.68
2023-05-21T04:28:00.308Z,46.67
2023-05-21T04:29:00.357Z,46.68
2023-05-21T04:30:00.398Z,46.70
2023-05-21T04:31:00.601Z,46.70
2023-05-21T04:32:00.530Z,46.72
2023-05-21T04:33:00.707Z,46.72
2023-05-21T04:34:00.631Z,46.73
2023-05-21T04:35:00.681Z,46.73
2023-05-21T04:36:00.763Z,46.73
2023-05-21T04:37:00.788Z,46.73
2023-05-21T04:38:02.279Z,46.72
2023-05-21T04:39:01.038Z,46.77
2023-05-21T04:40:01.100Z,46.77
2023-05-21T04:41:01.183Z,46.77
2023-05-21T04:42:01.167Z,46.78
2023-05-21T04:43:01.249Z,46.77
2023-05-21T04:44:01.286Z,46.79
2023-05-21T04:45:01.371Z,46.80
2023-05-21T04:46:01.417Z,46.78
2023-05-21T04:47:01.441Z,46.80
2023-05-21T04:48:01.552Z,46.78
2023-05-21T04:49:01.544Z,46.78
2023-05-21T04:50:01.619Z,46.82
2023-05-21T04:51:01.705Z,46.81
2023-05-21T04:52:01.674Z,46.83
2023-05-21T04:53:01.736Z,46.82
2023-05-21T04:54:01.816Z,46.84
2023-05-21T04:55:01.854Z,46.80
2023-05-21T04:56:02.202Z,46.83
2023-05-21T04:57:02.010Z,46.81
2023-05-21T04:58:01.995Z,46.79
2023-05-21T04:59:04.643Z,46.80
2023-05-21T05:00:02.050Z,46.85
2023-05-21T05:01:02.249Z,46.81
2023-05-21T05:02:02.026Z,46.82
2023-05-21T05:03:02.078Z,46.83
2023-05-21T05:04:02.110Z,46.80
2023-05-21T05:05:02.006Z,46.81
2023-05-21T05:06:02.228Z,46.82
2023-05-21T05:07:01.988Z,46.84
2023-05-21T05:08:02.008Z,46.82
2023-05-21T05:09:02.017Z,46.81
2023-05-21T05:10:01.977Z,46.81
2023-05-21T05:11:02.220Z,46.82
2023-05-21T05:12:01.970Z,46.82
2023-05-21T05:13:01.992Z,46.82
2023-05-21T05:14:01.960Z,46.82
2023-05-21T05:15:01.976Z,46.85
2023-05-21T05:16:02.221Z,46.82
2023-05-21T05:17:02.056Z,46.82
2023-05-21T05:18:02.001Z,46.85
2023-05-21T05:19:01.956Z,46.85
2023-05-21T05:20:01.920Z,46.82
2023-05-21T05:21:02.260Z,46.84
2023-05-21T05:22:01.913Z,46.83
2023-05-21T05:23:01.910Z,46.82
2023-05-21T05:24:01.864Z,46.85
2023-05-21T05:25:01.890Z,46.84
2023-05-21T05:26:01.907Z,46.84
2023-05-21T05:27:01.876Z,46.85
2023-05-21T05:28:01.879Z,46.87
2023-05-21T05:29:01.876Z,46.84
2023-05-21T05:30:01.855Z,46.86
2023-05-21T05:31:02.278Z,46.85
2023-05-21T05:32:01.840Z,46.86
2023-05-21T05:33:01.904Z,46.86
2023-05-21T05:34:01.836Z,46.83
2023-05-21T05:35:02.660Z,46.86
2023-05-21T05:36:02.260Z,46.87
2023-05-21T05:37:01.930Z,46.88
2023-05-21T05:38:02.001Z,46.86
2023-05-21T05:39:02.049Z,46.87
2023-05-21T05:40:02.165Z,46.85
2023-05-21T05:41:02.213Z,46.88
2023-05-21T05:42:02.217Z,46.89
2023-05-21T05:43:02.269Z,46.89
2023-05-21T05:44:02.304Z,46.85
2023-05-21T05:45:02.380Z,46.85
2023-05-21T05:46:02.792Z,46.88
2023-05-21T05:47:02.469Z,46.88
2023-05-21T05:48:02.591Z,46.87
2023-05-21T05:49:02.604Z,46.90
2023-05-21T05:50:02.882Z,46.89
2023-05-21T05:51:03.233Z,46.89
2023-05-21T05:52:02.923Z,46.86
2023-05-21T05:53:02.750Z,46.88
2023-05-21T05:54:02.795Z,46.87
2023-05-21T05:55:02.827Z,46.89
2023-05-21T05:56:03.228Z,46.89
2023-05-21T05:57:02.921Z,46.87
2023-05-21T05:58:02.963Z,46.89
2023-05-21T05:59:03.050Z,46.87
2023-05-21T06:00:03.081Z,46.89
2023-05-21T06:01:03.171Z,46.87
2023-05-21T06:02:03.203Z,46.87
2023-05-21T06:03:03.255Z,46.87
2023-05-21T06:04:03.272Z,46.88
2023-05-21T06:05:03.382Z,46.86
2023-05-21T06:06:03.478Z,46.86
2023-05-21T06:07:03.466Z,46.86
2023-05-21T06:08:03.503Z,46.86
2023-05-21T06:09:03.568Z,46.88
2023-05-21T06:10:03.569Z,46.86
2023-05-21T06:11:03.651Z,46.86
2023-05-21T06:12:03.750Z,46.87
2023-05-21T06:13:03.751Z,46.86
2023-05-21T06:14:03.815Z,46.83
2023-05-21T06:15:03.889Z,46.84
2023-05-21T06:16:04.314Z,46.85
2023-05-21T06:17:03.992Z,46.85
2023-05-21T06:18:04.058Z,46.82
2023-05-21T06:19:04.138Z,46.87
2023-05-21T06:20:04.105Z,46.85
2023-05-21T06:21:04.269Z,46.85
2023-05-21T06:22:04.232Z,46.84
2023-05-21T06:23:04.260Z,46.83
2023-05-21T06:24:04.303Z,46.85
2023-05-21T06:25:04.379Z,46.86
2023-05-21T06:26:04.441Z,46.85
2023-05-21T06:27:04.477Z,46.85
2023-05-21T06:28:04.512Z,46.85
2023-05-21T06:29:04.586Z,46.83
2023-05-21T06:30:04.637Z,46.85
2023-05-21T06:31:04.724Z,46.83
2023-05-21T06:32:04.712Z,46.88
2023-05-21T06:33:04.861Z,46.85
2023-05-21T06:34:04.994Z,46.85
2023-05-21T06:35:04.862Z,46.86
2023-05-21T06:36:05.240Z,46.85
2023-05-21T06:37:04.934Z,46.84
2023-05-21T06:38:05.013Z,46.87
2023-05-21T06:39:05.058Z,46.86
2023-05-21T06:40:05.086Z,46.85
2023-05-21T06:41:05.259Z,46.84
2023-05-21T06:42:05.235Z,46.84
2023-05-21T06:43:05.294Z,46.85
2023-05-21T06:44:05.338Z,46.84
2023-05-21T06:45:05.347Z,46.84
2023-05-21T06:46:05.792Z,46.85
2023-05-21T06:47:05.460Z,46.84
2023-05-21T06:48:05.533Z,46.85
2023-05-21T06:49:05.531Z,46.83
2023-05-21T06:50:05.653Z,46.85
2023-05-21T06:51:05.659Z,46.84
2023-05-21T06:52:05.694Z,46.84
2023-05-21T06:53:05.712Z,46.83
2023-05-21T06:54:05.875Z,46.84
2023-05-21T06:55:05.800Z,46.84
2023-05-21T06:56:06.264Z,46.84
2023-05-21T06:57:05.945Z,46.82
2023-05-21T06:58:05.954Z,46.84
2023-05-21T06:59:06.025Z,46.84
2023-05-21T07:00:06.054Z,46.85
2023-05-21T07:01:06.276Z,46.80
2023-05-21T07:02:06.203Z,46.81
2023-05-21T07:03:06.315Z,46.82
2023-05-21T07:04:06.213Z,46.82
2023-05-21T07:05:06.267Z,46.83
2023-05-21T07:06:06.308Z,46.82
2023-05-21T07:07:06.374Z,46.83
2023-05-21T07:08:06.405Z,46.82
2023-05-21T07:09:06.424Z,46.83
2023-05-21T07:10:06.446Z,46.81
2023-05-21T07:11:06.506Z,46.80
2023-05-21T07:12:06.594Z,46.80
2023-05-21T07:13:06.620Z,46.80
2023-05-21T07:14:06.667Z,46.78
2023-05-21T07:15:06.694Z,46.79
2023-05-21T07:16:06.741Z,46.79
2023-05-21T07:17:06.957Z,46.81
2023-05-21T07:18:06.939Z,46.81
2023-05-21T07:19:06.949Z,46.79
2023-05-21T07:20:06.978Z,46.79
2023-05-21T07:21:07.246Z,46.80
2023-05-21T07:22:07.014Z,46.78
2023-05-21T07:23:07.096Z,46.82
2023-05-21T07:24:07.125Z,46.78
2023-05-21T07:25:07.137Z,46.82
2023-05-21T07:26:07.345Z,46.78
2023-05-21T07:27:17.769Z,46.79
2023-05-21T07:28:08.248Z,46.79
2023-05-21T07:29:07.223Z,46.82
2023-05-21T07:30:07.250Z,46.78
2023-05-21T07:31:07.272Z,46.79
2023-05-21T07:32:07.257Z,46.78
2023-05-21T07:33:07.215Z,46.77
2023-05-21T07:34:07.220Z,46.74
2023-05-21T07:35:07.227Z,46.74
2023-05-21T07:36:07.227Z,46.73
2023-05-21T07:37:07.191Z,46.76
2023-05-21T07:38:07.218Z,46.73
2023-05-21T07:39:07.259Z,46.74
2023-05-21T07:40:07.309Z,46.74
2023-05-21T07:41:07.772Z,46.73
2023-05-21T07:42:07.394Z,46.77
2023-05-21T07:43:07.459Z,46.73
2023-05-21T07:44:07.468Z,46.73
2023-05-21T07:45:07.510Z,46.72
2023-05-21T07:46:07.846Z,46.73
2023-05-21T07:47:07.600Z,46.71
2023-05-21T07:48:07.743Z,46.69
2023-05-21T07:49:07.698Z,46.68
2023-05-21T07:50:07.752Z,46.66
2023-05-21T07:51:07.802Z,46.68
2023-05-21T07:52:07.804Z,46.68
2023-05-21T07:53:07.905Z,46.70
2023-05-21T07:54:07.888Z,46.66
2023-05-21T07:55:07.950Z,46.69
2023-05-21T07:56:08.044Z,46.67
2023-05-21T07:57:08.020Z,46.65
2023-05-21T07:58:08.111Z,46.65
2023-05-21T07:59:08.107Z,46.67
2023-05-21T08:00:08.166Z,46.64
2023-05-21T08:01:08.193Z,46.65
2023-05-21T08:02:08.241Z,46.65
2023-05-21T08:03:08.342Z,46.62
2023-05-21T08:04:08.486Z,46.63
2023-05-21T08:05:08.571Z,46.62
2023-05-21T08:06:08.411Z,46.62
2023-05-21T08:07:08.451Z,46.62
2023-05-21T08:08:08.526Z,46.65
2023-05-21T08:09:08.535Z,46.62
2023-05-21T08:10:08.589Z,46.61
2023-05-21T08:11:08.669Z,46.60
2023-05-21T08:12:08.662Z,46.61
2023-05-21T08:13:08.706Z,46.58
2023-05-21T08:14:08.694Z,46.62
2023-05-21T08:15:08.778Z,46.59
2023-05-21T08:16:08.854Z,46.58
2023-05-21T08:17:08.828Z,46.61
2023-05-21T08:18:08.878Z,46.59
2023-05-21T08:19:08.956Z,46.58
2023-05-21T08:20:08.955Z,46.56
2023-05-21T08:21:08.996Z,46.58
2023-05-21T08:22:09.000Z,46.58
2023-05-21T08:23:09.045Z,46.59
2023-05-21T08:24:09.108Z,46.56
2023-05-21T08:25:09.082Z,46.57
2023-05-21T08:26:09.153Z,46.55
2023-05-21T08:27:09.207Z,46.55
2023-05-21T08:28:09.204Z,46.58
2023-05-21T08:29:09.246Z,46.55
2023-05-21T08:30:09.297Z,46.55
2023-05-21T08:31:09.302Z,46.53
2023-05-21T08:32:09.383Z,46.52
2023-05-21T08:33:09.459Z,46.51
2023-05-21T08:34:09.383Z,46.52
2023-05-21T08:35:09.369Z,46.52
2023-05-21T08:36:09.773Z,46.53
2023-05-21T08:37:09.451Z,46.52
2023-05-21T08:38:09.489Z,46.55
2023-05-21T08:39:09.522Z,46.51
2023-05-21T08:40:09.526Z,46.50
2023-05-21T08:41:09.595Z,46.51
2023-05-21T08:42:09.588Z,46.50
2023-05-21T08:43:09.655Z,46.51
2023-05-21T08:44:09.644Z,46.52
2023-05-21T08:45:09.717Z,46.49
2023-05-21T08:46:09.873Z,46.48
2023-05-21T08:47:09.795Z,46.49
2023-05-21T08:48:09.809Z,46.48
2023-05-21T08:49:09.832Z,46.48
2023-05-21T08:50:09.885Z,46.47
2023-05-21T08:51:09.882Z,46.46
2023-05-21T08:52:09.918Z,46.50
2023-05-21T08:53:19.828Z,46.47
2023-05-21T08:54:10.911Z,46.47
2023-05-21T08:55:09.908Z,46.46
2023-05-21T08:56:09.922Z,46.47
2023-05-21T08:57:09.949Z,46.45
2023-05-21T08:58:09.923Z,46.46
2023-05-21T08:59:09.875Z,46.46
2023-05-21T09:00:09.877Z,46.45
2023-05-21T09:01:09.985Z,46.44
2023-05-21T09:02:09.875Z,46.44
2023-05-21T09:03:10.017Z,46.43
2023-05-21T09:04:20.303Z,46.42
2023-05-21T09:05:10.841Z,46.42
2023-05-21T09:06:09.818Z,46.42
2023-05-21T09:07:09.856Z,46.40
2023-05-21T09:08:09.847Z,46.42
2023-05-21T09:09:09.848Z,46.40
2023-05-21T09:10:09.844Z,46.42
2023-05-21T09:11:09.808Z,46.40
2023-05-21T09:12:09.801Z,46.40
2023-05-21T09:13:09.807Z,46.37
2023-05-21T09:14:09.764Z,46.38
2023-05-21T09:15:09.780Z,46.38
2023-05-21T09:16:09.832Z,46.38
2023-05-21T09:17:09.754Z,46.39
2023-05-21T09:18:09.888Z,46.37
2023-05-21T09:19:09.782Z,46.34
2023-05-21T09:20:09.812Z,46.33
2023-05-21T09:21:10.303Z,46.35
2023-05-21T09:22:09.851Z,46.35
2023-05-21T09:23:09.896Z,46.35
2023-05-21T09:24:09.951Z,46.35
2023-05-21T09:25:09.949Z,46.34
2023-05-21T09:26:09.989Z,46.32
2023-05-21T09:27:10.021Z,46.33
2023-05-21T09:28:10.065Z,46.31
2023-05-21T09:29:10.109Z,46.30
2023-05-21T09:30:10.110Z,46.29
2023-05-21T09:31:10.181Z,46.26
2023-05-21T09:32:10.181Z,46.25
2023-05-21T09:33:10.256Z,46.30
2023-05-21T09:34:10.350Z,46.27
2023-05-21T09:35:10.200Z,46.27
2023-05-21T09:36:10.228Z,46.24
2023-05-21T09:37:23.625Z,46.26
2023-05-21T09:38:11.236Z,46.24
2023-05-21T09:39:10.249Z,46.26
2023-05-21T09:40:10.221Z,46.26
2023-05-21T09:41:10.304Z,46.25
2023-05-21T09:42:10.190Z,46.20
2023-05-21T09:43:10.216Z,46.20
2023-05-21T09:44:10.222Z,46.21
2023-05-21T09:45:10.240Z,46.19
2023-05-21T09:46:10.204Z,46.21
2023-05-21T09:47:10.158Z,46.21
2023-05-21T09:48:10.178Z,46.19
2023-05-21T09:49:10.207Z,46.19
2023-05-21T09:50:10.164Z,46.18
2023-05-21T09:51:10.171Z,46.16
2023-05-21T09:52:10.167Z,46.19
2023-05-21T09:53:10.151Z,46.18
2023-05-21T09:54:10.153Z,46.16
2023-05-21T09:55:10.186Z,46.17
2023-05-21T09:56:10.301Z,46.17
2023-05-21T09:57:10.182Z,46.18
2023-05-21T09:58:10.195Z,46.15
2023-05-21T09:59:10.218Z,46.14
2023-05-21T10:00:10.245Z,46.13
2023-05-21T10:01:10.288Z,46.14
2023-05-21T10:02:10.399Z,46.15
2023-05-21T10:03:10.378Z,46.15
2023-05-21T10:04:10.433Z,46.13
2023-05-21T10:05:10.413Z,46.12
2023-05-21T10:06:10.386Z,46.14
2023-05-21T10:07:10.422Z,46.10
2023-05-21T10:08:10.495Z,46.12
2023-05-21T10:09:10.539Z,46.14
2023-05-21T10:10:10.509Z,46.14
2023-05-21T10:11:10.496Z,46.14
2023-05-21T10:12:10.557Z,46.10
2023-05-21T10:13:10.554Z,46.11
2023-05-21T10:14:10.565Z,46.11
2023-05-21T10:15:10.598Z,46.12
2023-05-21T10:16:10.612Z,46.10
2023-05-21T10:17:10.647Z,46.10
2023-05-21T10:18:10.728Z,46.12
2023-05-21T10:19:10.861Z,46.09
2023-05-21T10:20:10.722Z,46.07
2023-05-21T10:21:10.780Z,46.10
2023-05-21T10:22:10.752Z,46.08
2023-05-21T10:23:10.760Z,46.05
2023-05-21T10:24:10.791Z,46.04
2023-05-21T10:25:10.824Z,46.03
2023-05-21T10:26:10.846Z,46.05
2023-05-21T10:27:10.877Z,46.03
2023-05-21T10:28:10.866Z,46.03
2023-05-21T10:29:10.900Z,46.04
2023-05-21T10:30:10.932Z,45.99
2023-05-21T10:31:11.318Z,46.01
2023-05-21T10:32:11.052Z,46.00
2023-05-21T10:33:11.080Z,45.98
2023-05-21T10:34:11.036Z,45.98
2023-05-21T10:35:11.082Z,45.99
2023-05-21T10:36:11.081Z,45.95
2023-05-21T10:37:11.097Z,45.95
2023-05-21T10:38:11.136Z,45.92
2023-05-21T10:39:11.153Z,45.93
2023-05-21T10:40:11.190Z,45.95
2023-05-21T10:41:11.173Z,45.93
2023-05-21T10:42:11.229Z,45.93
2023-05-21T10:43:11.230Z,45.94
2023-05-21T10:44:11.252Z,45.89
2023-05-21T10:45:11.326Z,45.91
2023-05-21T10:46:11.403Z,45.93
2023-05-21T10:47:11.323Z,45.90
2023-05-21T10:48:11.341Z,45.89
2023-05-21T10:49:11.371Z,45.93
2023-05-21T10:50:11.453Z,45.91
2023-05-21T10:51:11.431Z,45.91
2023-05-21T10:52:11.480Z,45.89
2023-05-21T10:53:11.464Z,45.94
2023-05-21T10:54:11.480Z,45.89
2023-05-21T10:55:11.563Z,45.88
2023-05-21T10:56:11.521Z,45.90
2023-05-21T10:57:11.533Z,45.92
2023-05-21T10:58:11.620Z,45.89
2023-05-21T10:59:11.582Z,45.88
2023-05-21T11:00:11.635Z,45.87
2023-05-21T11:01:11.669Z,45.86
2023-05-21T11:02:11.685Z,45.86
2023-05-21T11:03:11.749Z,45.87
2023-05-21T11:04:11.686Z,45.83
2023-05-21T11:05:11.758Z,45.86
2023-05-21T11:06:11.726Z,45.83
2023-05-21T11:07:11.810Z,45.86
2023-05-21T11:08:11.819Z,45.83
2023-05-21T11:09:11.815Z,45.83
2023-05-21T11:10:11.843Z,45.84
2023-05-21T11:11:11.855Z,45.82
2023-05-21T11:12:11.876Z,45.77
2023-05-21T11:13:11.920Z,45.81
2023-05-21T11:14:11.936Z,45.78
2023-05-21T11:15:11.987Z,45.75
2023-05-21T11:16:12.013Z,45.74
2023-05-21T11:17:12.077Z,45.74
2023-05-21T11:18:12.084Z,45.73
2023-05-21T11:19:12.128Z,45.72
2023-05-21T11:20:12.137Z,45.72
2023-05-21T11:21:12.383Z,45.73
2023-05-21T11:22:12.163Z,45.73
2023-05-21T11:23:12.186Z,45.71
2023-05-21T11:24:12.185Z,45.72
2023-05-21T11:25:12.214Z,45.69
2023-05-21T11:26:12.603Z,45.71
2023-05-21T11:27:12.343Z,45.68
2023-05-21T11:28:12.345Z,45.66
2023-05-21T11:29:12.367Z,45.66
2023-05-21T11:30:12.437Z,45.64
2023-05-21T11:31:12.858Z,45.66
2023-05-21T11:32:12.504Z,45.64
2023-05-21T11:33:12.588Z,45.65
2023-05-21T11:34:12.580Z,45.65
2023-05-21T11:35:12.575Z,45.63
2023-05-21T11:36:12.823Z,45.65
2023-05-21T11:37:12.664Z,45.64
2023-05-21T11:38:12.708Z,45.61
2023-05-21T11:39:12.745Z,45.61
2023-05-21T11:40:12.786Z,45.62
2023-05-21T11:41:12.859Z,45.63
2023-05-21T11:42:12.805Z,45.63
2023-05-21T11:43:12.819Z,45.62
2023-05-21T11:44:12.848Z,45.60
2023-05-21T11:45:12.896Z,45.60
2023-05-21T11:46:13.384Z,45.61
2023-05-21T11:47:12.928Z,45.65
2023-05-21T11:48:12.910Z,45.61
2023-05-21T11:49:12.990Z,45.64
2023-05-21T11:50:13.160Z,45.64
2023-05-21T11:51:13.339Z,45.63
2023-05-21T11:52:13.062Z,45.60
2023-05-21T11:53:13.156Z,45.61
2023-05-21T11:54:13.153Z,45.60
2023-05-21T11:55:13.206Z,45.58
2023-05-21T11:56:13.278Z,45.60
2023-05-21T11:57:13.280Z,45.60
2023-05-21T11:58:13.295Z,45.56
2023-05-21T11:59:13.342Z,45.55
2023-05-21T12:00:13.349Z,45.57
2023-05-21T12:01:13.866Z,45.56
2023-05-21T12:02:13.433Z,45.58
2023-05-21T12:03:13.559Z,45.61
2023-05-21T12:04:13.488Z,45.62
2023-05-21T12:05:13.504Z,45.61
2023-05-21T12:06:13.573Z,45.60
2023-05-21T12:07:13.562Z,45.62
2023-05-21T12:08:13.618Z,45.61
2023-05-21T12:09:13.614Z,45.61
2023-05-21T12:10:13.657Z,45.60
2023-05-21T12:11:13.684Z,45.61
2023-05-21T12:12:13.766Z,45.60
2023-05-21T12:13:13.777Z,45.60
2023-05-21T12:14:13.944Z,45.60
2023-05-21T12:15:13.841Z,45.57
2023-05-21T12:16:13.819Z,45.59
2023-05-21T12:17:13.812Z,45.60
2023-05-21T12:18:13.945Z,45.60
2023-05-21T12:19:13.993Z,45.59
2023-05-21T12:20:13.965Z,45.56
2023-05-21T12:21:13.961Z,45.57
2023-05-21T12:22:14.014Z,45.56
2023-05-21T12:23:14.016Z,45.56
2023-05-21T12:24:14.016Z,45.55
2023-05-21T12:25:14.027Z,45.56
2023-05-21T12:26:14.060Z,45.51
2023-05-21T12:27:14.054Z,45.54
2023-05-21T12:28:14.081Z,45.53
2023-05-21T12:29:14.136Z,45.55
2023-05-21T12:30:14.174Z,45.50
2023-05-21T12:31:14.206Z,45.51
2023-05-21T12:32:14.273Z,45.53
2023-05-21T12:33:14.302Z,45.52
2023-05-21T12:34:14.296Z,45.51
2023-05-21T12:35:14.368Z,45.54
2023-05-21T12:36:14.378Z,45.54
2023-05-21T12:37:14.358Z,45.54
2023-05-21T12:38:14.395Z,45.52
2023-05-21T12:39:14.439Z,45.55
2023-05-21T12:40:14.502Z,45.52
2023-05-21T12:41:14.532Z,45.52
2023-05-21T12:42:14.556Z,45.53
2023-05-21T12:43:14.630Z,45.51
2023-05-21T12:44:14.671Z,45.50
2023-05-21T12:45:14.673Z,45.53
2023-05-21T12:46:14.886Z,45.51
2023-05-21T12:47:14.762Z,45.53
2023-05-21T12:48:14.804Z,45.53
2023-05-21T12:49:14.837Z,45.51
2023-05-21T12:50:14.840Z,45.51
2023-05-21T12:51:14.885Z,45.51
2023-05-21T12:52:14.910Z,45.52
2023-05-21T12:53:14.960Z,45.52